sensor_id;sensor_type;location;lat;lon;timestamp;P1;durP1;ratioP1;P2;durP2;ratioP2
37851;SDS011;23691;52.486;4.650;2023-04-06T00:02:19;44.88;;;22.88;;
37851;SDS011;23691;52.486;4.650;2023-04-06T00:07:16;43.63;;;21.25;;
37851;SDS011;23691;52.486;4.650;2023-04-06T00:12:16;42.08;;;21.00;;
37851;SDS011;23691;52.486;4.650;2023-04-06T00:14:44;37.45;;;19.77;;
37851;SDS011;23691;52.486;4.650;2023-04-06T00:17:10;37.15;;;19.52;;
37851;SDS011;23691;52.486;4.650;2023-04-06T00:19:35;34.38;;;18.85;;
37851;SDS011;23691;52.486;4.650;2023-04-06T00:22:01;37.08;;;19.65;;
37851;SDS011;23691;52.486;4.650;2023-04-06T00:24:27;32.85;;;18.25;;
37851;SDS011;23691;52.486;4.650;2023-04-06T00:26:53;35.35;;;18.75;;
37851;SDS011;23691;52.486;4.650;2023-04-06T00:29:24;35.15;;;19.20;;
37851;SDS011;23691;52.486;4.650;2023-04-06T00:31:50;33.85;;;17.85;;
37851;SDS011;23691;52.486;4.650;2023-04-06T00:34:15;36.97;;;18.42;;
37851;SDS011;23691;52.486;4.650;2023-04-06T00:36:41;29.95;;;17.40;;
37851;SDS011;23691;52.486;4.650;2023-04-06T00:39:06;32.30;;;17.58;;
37851;SDS011;23691;52.486;4.650;2023-04-06T00:44:00;33.35;;;17.13;;
37851;SDS011;23691;52.486;4.650;2023-04-06T00:46:27;32.72;;;17.55;;
37851;SDS011;23691;52.486;4.650;2023-04-06T00:48:53;39.50;;;17.92;;
37851;SDS011;23691;52.486;4.650;2023-04-06T00:51:18;34.88;;;18.20;;
37851;SDS011;23691;52.486;4.650;2023-04-06T00:53:44;33.33;;;16.88;;
37851;SDS011;23691;52.486;4.650;2023-04-06T00:56:10;29.15;;;16.90;;
37851;SDS011;23691;52.486;4.650;2023-04-06T00:58:37;31.50;;;16.77;;
37851;SDS011;23691;52.486;4.650;2023-04-06T01:01:05;32.92;;;16.65;;
37851;SDS011;23691;52.486;4.650;2023-04-06T01:03:31;28.75;;;16.52;;
37851;SDS011;23691;52.486;4.650;2023-04-06T01:05:56;30.42;;;17.02;;
37851;SDS011;23691;52.486;4.650;2023-04-06T01:08:23;31.77;;;16.65;;
37851;SDS011;23691;52.486;4.650;2023-04-06T01:10:50;32.47;;;17.13;;
37851;SDS011;23691;52.486;4.650;2023-04-06T01:13:18;30.45;;;17.05;;
37851;SDS011;23691;52.486;4.650;2023-04-06T01:15:49;33.17;;;16.15;;
37851;SDS011;23691;52.486;4.650;2023-04-06T01:18:15;30.08;;;15.95;;
37851;SDS011;23691;52.486;4.650;2023-04-06T01:20:40;29.48;;;16.02;;
37851;SDS011;23691;52.486;4.650;2023-04-06T01:23:07;27.00;;;15.30;;
37851;SDS011;23691;52.486;4.650;2023-04-06T01:25:33;30.25;;;15.90;;
37851;SDS011;23691;52.486;4.650;2023-04-06T01:27:58;30.63;;;16.15;;
37851;SDS011;23691;52.486;4.650;2023-04-06T01:30:24;28.20;;;15.75;;
37851;SDS011;23691;52.486;4.650;2023-04-06T01:32:50;28.50;;;15.93;;
37851;SDS011;23691;52.486;4.650;2023-04-06T01:35:19;27.23;;;15.52;;
37851;SDS011;23691;52.486;4.650;2023-04-06T01:37:45;30.48;;;15.20;;
37851;SDS011;23691;52.486;4.650;2023-04-06T01:40:10;28.75;;;15.25;;
37851;SDS011;23691;52.486;4.650;2023-04-06T01:42:36;30.23;;;15.05;;
37851;SDS011;23691;52.486;4.650;2023-04-06T01:45:06;27.40;;;14.80;;
37851;SDS011;23691;52.486;4.650;2023-04-06T01:47:34;26.20;;;14.68;;
37851;SDS011;23691;52.486;4.650;2023-04-06T01:49:59;26.38;;;14.50;;
37851;SDS011;23691;52.486;4.650;2023-04-06T01:52:25;29.05;;;14.88;;
37851;SDS011;23691;52.486;4.650;2023-04-06T01:54:53;26.38;;;14.57;;
37851;SDS011;23691;52.486;4.650;2023-04-06T01:57:20;26.23;;;14.10;;
37851;SDS011;23691;52.486;4.650;2023-04-06T01:59:46;24.20;;;13.90;;
37851;SDS011;23691;52.486;4.650;2023-04-06T02:02:11;23.88;;;13.55;;
37851;SDS011;23691;52.486;4.650;2023-04-06T02:04:38;23.98;;;12.98;;
37851;SDS011;23691;52.486;4.650;2023-04-06T02:07:03;22.13;;;12.43;;
37851;SDS011;23691;52.486;4.650;2023-04-06T02:09:29;23.00;;;12.88;;
37851;SDS011;23691;52.486;4.650;2023-04-06T02:11:55;22.15;;;12.40;;
37851;SDS011;23691;52.486;4.650;2023-04-06T02:14:20;23.50;;;13.20;;
37851;SDS011;23691;52.486;4.650;2023-04-06T02:16:46;24.17;;;12.35;;
37851;SDS011;23691;52.486;4.650;2023-04-06T02:19:11;20.38;;;11.95;;
37851;SDS011;23691;52.486;4.650;2023-04-06T02:21:37;20.75;;;11.82;;
37851;SDS011;23691;52.486;4.650;2023-04-06T02:24:02;21.55;;;11.73;;
37851;SDS011;23691;52.486;4.650;2023-04-06T02:26:27;20.42;;;11.02;;
37851;SDS011;23691;52.486;4.650;2023-04-06T02:28:53;20.63;;;11.20;;
37851;SDS011;23691;52.486;4.650;2023-04-06T02:31:20;20.90;;;11.30;;
37851;SDS011;23691;52.486;4.650;2023-04-06T02:33:45;23.75;;;11.45;;
37851;SDS011;23691;52.486;4.650;2023-04-06T02:36:11;19.17;;;10.70;;
37851;SDS011;23691;52.486;4.650;2023-04-06T02:38:39;20.35;;;10.52;;
37851;SDS011;23691;52.486;4.650;2023-04-06T02:41:04;21.40;;;10.70;;
37851;SDS011;23691;52.486;4.650;2023-04-06T02:43:30;19.27;;;10.93;;
37851;SDS011;23691;52.486;4.650;2023-04-06T02:45:56;17.90;;;10.70;;
37851;SDS011;23691;52.486;4.650;2023-04-06T02:48:23;19.08;;;10.82;;
37851;SDS011;23691;52.486;4.650;2023-04-06T02:50:49;21.70;;;10.80;;
37851;SDS011;23691;52.486;4.650;2023-04-06T02:53:14;20.50;;;10.63;;
37851;SDS011;23691;52.486;4.650;2023-04-06T02:55:40;18.45;;;10.40;;
37851;SDS011;23691;52.486;4.650;2023-04-06T02:58:05;19.13;;;9.82;;
37851;SDS011;23691;52.486;4.650;2023-04-06T03:00:31;18.52;;;10.25;;
37851;SDS011;23691;52.486;4.650;2023-04-06T03:02:57;19.83;;;10.73;;
37851;SDS011;23691;52.486;4.650;2023-04-06T03:05:22;18.75;;;10.10;;
37851;SDS011;23691;52.486;4.650;2023-04-06T03:07:48;19.70;;;10.40;;
37851;SDS011;23691;52.486;4.650;2023-04-06T03:10:13;18.35;;;10.38;;
37851;SDS011;23691;52.486;4.650;2023-04-06T03:12:39;18.60;;;10.13;;
37851;SDS011;23691;52.486;4.650;2023-04-06T03:15:06;20.65;;;10.30;;
37851;SDS011;23691;52.486;4.650;2023-04-06T03:17:32;18.98;;;10.00;;
37851;SDS011;23691;52.486;4.650;2023-04-06T03:19:58;20.13;;;10.63;;
37851;SDS011;23691;52.486;4.650;2023-04-06T03:22:29;18.67;;;10.35;;
37851;SDS011;23691;52.486;4.650;2023-04-06T03:24:55;21.10;;;10.52;;
37851;SDS011;23691;52.486;4.650;2023-04-06T03:27:20;19.00;;;10.43;;
37851;SDS011;23691;52.486;4.650;2023-04-06T03:29:47;18.98;;;10.65;;
37851;SDS011;23691;52.486;4.650;2023-04-06T03:32:12;17.80;;;10.52;;
37851;SDS011;23691;52.486;4.650;2023-04-06T03:34:38;18.92;;;10.60;;
37851;SDS011;23691;52.486;4.650;2023-04-06T03:37:04;24.20;;;10.98;;
37851;SDS011;23691;52.486;4.650;2023-04-06T03:39:31;21.25;;;11.48;;
37851;SDS011;23691;52.486;4.650;2023-04-06T03:41:56;20.00;;;11.00;;
37851;SDS011;23691;52.486;4.650;2023-04-06T03:44:22;19.40;;;10.82;;
37851;SDS011;23691;52.486;4.650;2023-04-06T03:46:47;20.73;;;11.45;;
37851;SDS011;23691;52.486;4.650;2023-04-06T03:49:15;22.38;;;11.27;;
37851;SDS011;23691;52.486;4.650;2023-04-06T03:51:40;18.83;;;10.85;;
37851;SDS011;23691;52.486;4.650;2023-04-06T03:56:34;20.48;;;11.40;;
37851;SDS011;23691;52.486;4.650;2023-04-06T03:59:00;21.90;;;12.25;;
37851;SDS011;23691;52.486;4.650;2023-04-06T04:01:26;24.00;;;13.25;;
37851;SDS011;23691;52.486;4.650;2023-04-06T04:03:52;24.60;;;12.25;;
37851;SDS011;23691;52.486;4.650;2023-04-06T04:06:18;21.98;;;11.45;;
37851;SDS011;23691;52.486;4.650;2023-04-06T04:08:44;20.55;;;11.85;;
37851;SDS011;23691;52.486;4.650;2023-04-06T04:11:12;23.35;;;11.20;;
37851;SDS011;23691;52.486;4.650;2023-04-06T04:13:37;20.52;;;11.18;;
37851;SDS011;23691;52.486;4.650;2023-04-06T04:16:03;22.23;;;11.43;;
37851;SDS011;23691;52.486;4.650;2023-04-06T04:18:28;21.23;;;11.05;;
37851;SDS011;23691;52.486;4.650;2023-04-06T04:20:54;20.75;;;11.40;;
37851;SDS011;23691;52.486;4.650;2023-04-06T04:23:19;21.08;;;11.50;;
37851;SDS011;23691;52.486;4.650;2023-04-06T04:25:45;23.67;;;11.40;;
37851;SDS011;23691;52.486;4.650;2023-04-06T04:28:19;20.23;;;11.20;;
37851;SDS011;23691;52.486;4.650;2023-04-06T04:30:49;24.88;;;12.05;;
37851;SDS011;23691;52.486;4.650;2023-04-06T04:33:16;20.63;;;12.23;;
37851;SDS011;23691;52.486;4.650;2023-04-06T04:35:41;19.80;;;11.70;;
37851;SDS011;23691;52.486;4.650;2023-04-06T04:38:09;20.17;;;11.48;;
37851;SDS011;23691;52.486;4.650;2023-04-06T04:40:34;23.13;;;12.18;;
37851;SDS011;23691;52.486;4.650;2023-04-06T04:43:03;22.05;;;11.82;;
37851;SDS011;23691;52.486;4.650;2023-04-06T04:45:29;21.48;;;11.32;;
37851;SDS011;23691;52.486;4.650;2023-04-06T04:48:07;20.95;;;12.30;;
37851;SDS011;23691;52.486;4.650;2023-04-06T04:50:33;22.13;;;12.27;;
37851;SDS011;23691;52.486;4.650;2023-04-06T04:52:59;25.48;;;12.88;;
37851;SDS011;23691;52.486;4.650;2023-04-06T04:55:27;25.30;;;13.43;;
37851;SDS011;23691;52.486;4.650;2023-04-06T04:57:57;23.23;;;11.90;;
37851;SDS011;23691;52.486;4.650;2023-04-06T05:00:22;26.63;;;13.18;;
37851;SDS011;23691;52.486;4.650;2023-04-06T05:02:48;23.33;;;12.77;;
37851;SDS011;23691;52.486;4.650;2023-04-06T05:05:15;23.52;;;13.15;;
37851;SDS011;23691;52.486;4.650;2023-04-06T05:07:43;25.58;;;12.60;;
37851;SDS011;23691;52.486;4.650;2023-04-06T05:10:09;24.48;;;13.27;;
37851;SDS011;23691;52.486;4.650;2023-04-06T05:12:34;24.48;;;12.90;;
37851;SDS011;23691;52.486;4.650;2023-04-06T05:15:00;23.50;;;13.50;;
37851;SDS011;23691;52.486;4.650;2023-04-06T05:17:26;25.73;;;12.95;;
37851;SDS011;23691;52.486;4.650;2023-04-06T05:19:51;27.00;;;13.90;;
37851;SDS011;23691;52.486;4.650;2023-04-06T05:22:18;24.65;;;13.88;;
37851;SDS011;23691;52.486;4.650;2023-04-06T05:24:45;28.63;;;14.77;;
37851;SDS011;23691;52.486;4.650;2023-04-06T05:27:10;27.60;;;14.48;;
37851;SDS011;23691;52.486;4.650;2023-04-06T05:29:37;28.38;;;13.48;;
37851;SDS011;23691;52.486;4.650;2023-04-06T05:32:03;26.88;;;14.25;;
37851;SDS011;23691;52.486;4.650;2023-04-06T05:34:28;27.42;;;14.05;;
37851;SDS011;23691;52.486;4.650;2023-04-06T05:36:54;26.45;;;14.40;;
37851;SDS011;23691;52.486;4.650;2023-04-06T05:39:20;26.25;;;14.55;;
37851;SDS011;23691;52.486;4.650;2023-04-06T05:41:45;28.45;;;14.27;;
37851;SDS011;23691;52.486;4.650;2023-04-06T05:44:11;26.98;;;13.95;;
37851;SDS011;23691;52.486;4.650;2023-04-06T05:46:39;26.63;;;14.75;;
37851;SDS011;23691;52.486;4.650;2023-04-06T05:51:54;24.20;;;14.25;;
37851;SDS011;23691;52.486;4.650;2023-04-06T05:54:40;29.02;;;14.38;;
37851;SDS011;23691;52.486;4.650;2023-04-06T05:59:55;26.02;;;15.20;;
37851;SDS011;23691;52.486;4.650;2023-04-06T06:02:21;25.70;;;14.43;;
37851;SDS011;23691;52.486;4.650;2023-04-06T06:04:47;29.60;;;15.70;;
37851;SDS011;23691;52.486;4.650;2023-04-06T06:07:14;27.50;;;14.55;;
37851;SDS011;23691;52.486;4.650;2023-04-06T06:09:40;25.17;;;14.50;;
37851;SDS011;23691;52.486;4.650;2023-04-06T06:12:05;27.02;;;15.65;;
37851;SDS011;23691;52.486;4.650;2023-04-06T06:14:31;27.17;;;15.77;;
37851;SDS011;23691;52.486;4.650;2023-04-06T06:16:56;26.42;;;15.38;;
37851;SDS011;23691;52.486;4.650;2023-04-06T06:19:22;29.10;;;16.10;;
37851;SDS011;23691;52.486;4.650;2023-04-06T06:21:47;29.02;;;15.07;;
37851;SDS011;23691;52.486;4.650;2023-04-06T06:24:16;31.02;;;16.08;;
37851;SDS011;23691;52.486;4.650;2023-04-06T06:29:09;28.63;;;15.98;;
37851;SDS011;23691;52.486;4.650;2023-04-06T06:31:35;32.63;;;16.70;;
37851;SDS011;23691;52.486;4.650;2023-04-06T06:34:01;29.27;;;17.00;;
37851;SDS011;23691;52.486;4.650;2023-04-06T06:36:27;30.58;;;16.55;;
37851;SDS011;23691;52.486;4.650;2023-04-06T06:41:26;28.33;;;16.10;;
37851;SDS011;23691;52.486;4.650;2023-04-06T06:43:52;28.98;;;16.85;;
37851;SDS011;23691;52.486;4.650;2023-04-06T06:46:20;33.35;;;17.02;;
37851;SDS011;23691;52.486;4.650;2023-04-06T06:48:46;29.85;;;17.33;;
37851;SDS011;23691;52.486;4.650;2023-04-06T06:51:11;33.55;;;16.88;;
37851;SDS011;23691;52.486;4.650;2023-04-06T06:53:37;31.10;;;18.38;;
37851;SDS011;23691;52.486;4.650;2023-04-06T06:56:02;30.38;;;17.23;;
37851;SDS011;23691;52.486;4.650;2023-04-06T06:58:28;30.63;;;17.58;;
37851;SDS011;23691;52.486;4.650;2023-04-06T07:00:57;28.00;;;17.30;;
37851;SDS011;23691;52.486;4.650;2023-04-06T07:03:23;32.30;;;18.02;;
37851;SDS011;23691;52.486;4.650;2023-04-06T07:05:49;28.40;;;17.90;;
37851;SDS011;23691;52.486;4.650;2023-04-06T07:08:21;32.97;;;18.80;;
37851;SDS011;23691;52.486;4.650;2023-04-06T07:10:48;29.98;;;17.55;;
37851;SDS011;23691;52.486;4.650;2023-04-06T07:13:16;31.42;;;17.63;;
37851;SDS011;23691;52.486;4.650;2023-04-06T07:15:46;35.10;;;18.20;;
37851;SDS011;23691;52.486;4.650;2023-04-06T07:18:12;30.38;;;18.58;;
37851;SDS011;23691;52.486;4.650;2023-04-06T07:20:37;34.08;;;18.65;;
37851;SDS011;23691;52.486;4.650;2023-04-06T07:23:03;33.72;;;18.98;;
37851;SDS011;23691;52.486;4.650;2023-04-06T07:25:29;33.05;;;19.25;;
37851;SDS011;23691;52.486;4.650;2023-04-06T07:27:54;35.88;;;20.05;;
37851;SDS011;23691;52.486;4.650;2023-04-06T07:30:20;40.95;;;21.45;;
37851;SDS011;23691;52.486;4.650;2023-04-06T07:32:47;36.00;;;22.25;;
37851;SDS011;23691;52.486;4.650;2023-04-06T07:35:13;40.53;;;22.50;;
37851;SDS011;23691;52.486;4.650;2023-04-06T07:37:38;36.08;;;22.17;;
37851;SDS011;23691;52.486;4.650;2023-04-06T07:40:04;43.35;;;24.48;;
37851;SDS011;23691;52.486;4.650;2023-04-06T07:42:30;36.53;;;22.75;;
37851;SDS011;23691;52.486;4.650;2023-04-06T07:44:55;40.75;;;22.92;;
37851;SDS011;23691;52.486;4.650;2023-04-06T07:47:23;38.75;;;23.08;;
37851;SDS011;23691;52.486;4.650;2023-04-06T07:49:48;38.00;;;22.30;;
37851;SDS011;23691;52.486;4.650;2023-04-06T07:52:14;37.90;;;22.15;;
37851;SDS011;23691;52.486;4.650;2023-04-06T07:54:40;40.38;;;23.15;;
37851;SDS011;23691;52.486;4.650;2023-04-06T07:57:06;39.17;;;22.52;;
37851;SDS011;23691;52.486;4.650;2023-04-06T07:59:32;39.88;;;21.65;;
37851;SDS011;23691;52.486;4.650;2023-04-06T08:01:57;39.53;;;22.15;;
37851;SDS011;23691;52.486;4.650;2023-04-06T08:04:22;35.97;;;21.40;;
37851;SDS011;23691;52.486;4.650;2023-04-06T08:06:48;34.88;;;20.63;;
37851;SDS011;23691;52.486;4.650;2023-04-06T08:09:13;34.97;;;21.30;;
37851;SDS011;23691;52.486;4.650;2023-04-06T08:11:39;37.67;;;21.38;;
37851;SDS011;23691;52.486;4.650;2023-04-06T08:14:05;36.33;;;22.20;;
37851;SDS011;23691;52.486;4.650;2023-04-06T08:16:30;36.50;;;21.05;;
37851;SDS011;23691;52.486;4.650;2023-04-06T08:18:56;35.50;;;21.52;;
37851;SDS011;23691;52.486;4.650;2023-04-06T08:21:21;35.05;;;20.58;;
37851;SDS011;23691;52.486;4.650;2023-04-06T08:23:47;33.67;;;19.80;;
37851;SDS011;23691;52.486;4.650;2023-04-06T08:26:12;37.03;;;20.85;;
37851;SDS011;23691;52.486;4.650;2023-04-06T08:28:38;36.47;;;21.10;;
37851;SDS011;23691;52.486;4.650;2023-04-06T08:31:04;36.30;;;21.13;;
37851;SDS011;23691;52.486;4.650;2023-04-06T08:33:30;34.03;;;20.85;;
37851;SDS011;23691;52.486;4.650;2023-04-06T08:35:56;37.05;;;20.23;;
37851;SDS011;23691;52.486;4.650;2023-04-06T08:38:22;37.85;;;21.13;;
37851;SDS011;23691;52.486;4.650;2023-04-06T08:40:48;34.75;;;19.77;;
37851;SDS011;23691;52.486;4.650;2023-04-06T08:43:17;33.25;;;20.80;;
37851;SDS011;23691;52.486;4.650;2023-04-06T08:45:45;37.95;;;20.73;;
37851;SDS011;23691;52.486;4.650;2023-04-06T08:48:12;40.15;;;21.83;;
37851;SDS011;23691;52.486;4.650;2023-04-06T08:50:38;34.58;;;20.70;;
37851;SDS011;23691;52.486;4.650;2023-04-06T08:53:04;35.65;;;20.63;;
37851;SDS011;23691;52.486;4.650;2023-04-06T08:55:31;40.38;;;20.73;;
37851;SDS011;23691;52.486;4.650;2023-04-06T08:57:56;33.13;;;20.55;;
37851;SDS011;23691;52.486;4.650;2023-04-06T09:00:24;37.55;;;21.30;;
37851;SDS011;23691;52.486;4.650;2023-04-06T09:02:51;33.25;;;20.02;;
37851;SDS011;23691;52.486;4.650;2023-04-06T09:05:20;35.13;;;20.60;;
37851;SDS011;23691;52.486;4.650;2023-04-06T09:07:46;33.15;;;20.10;;
37851;SDS011;23691;52.486;4.650;2023-04-06T09:10:12;35.38;;;20.73;;
37851;SDS011;23691;52.486;4.650;2023-04-06T09:12:37;34.88;;;19.83;;
37851;SDS011;23691;52.486;4.650;2023-04-06T09:15:02;32.22;;;20.30;;
37851;SDS011;23691;52.486;4.650;2023-04-06T09:17:29;33.13;;;19.90;;
37851;SDS011;23691;52.486;4.650;2023-04-06T09:19:57;33.40;;;20.05;;
37851;SDS011;23691;52.486;4.650;2023-04-06T09:22:23;33.50;;;19.70;;
37851;SDS011;23691;52.486;4.650;2023-04-06T09:24:51;35.20;;;21.27;;
37851;SDS011;23691;52.486;4.650;2023-04-06T09:27:19;31.15;;;20.15;;
37851;SDS011;23691;52.486;4.650;2023-04-06T09:30:06;33.67;;;20.50;;
37851;SDS011;23691;52.486;4.650;2023-04-06T09:32:55;33.47;;;19.92;;
37851;SDS011;23691;52.486;4.650;2023-04-06T09:35:21;33.97;;;18.57;;
37851;SDS011;23691;52.486;4.650;2023-04-06T09:37:48;33.65;;;19.42;;
37851;SDS011;23691;52.486;4.650;2023-04-06T09:40:14;36.15;;;19.80;;
37851;SDS011;23691;52.486;4.650;2023-04-06T09:42:42;32.25;;;18.85;;
37851;SDS011;23691;52.486;4.650;2023-04-06T09:45:10;34.70;;;20.55;;
37851;SDS011;23691;52.486;4.650;2023-04-06T09:47:36;32.13;;;18.48;;
37851;SDS011;23691;52.486;4.650;2023-04-06T09:50:02;34.55;;;18.75;;
37851;SDS011;23691;52.486;4.650;2023-04-06T09:52:38;30.80;;;19.42;;
37851;SDS011;23691;52.486;4.650;2023-04-06T09:55:05;31.70;;;19.73;;
37851;SDS011;23691;52.486;4.650;2023-04-06T09:57:37;33.70;;;19.25;;
37851;SDS011;23691;52.486;4.650;2023-04-06T10:00:11;32.88;;;19.02;;
37851;SDS011;23691;52.486;4.650;2023-04-06T10:05:37;27.02;;;14.93;;
37851;SDS011;23691;52.486;4.650;2023-04-06T10:08:10;20.73;;;12.30;;
37851;SDS011;23691;52.486;4.650;2023-04-06T10:10:36;22.75;;;12.40;;
37851;SDS011;23691;52.486;4.650;2023-04-06T10:13:03;21.27;;;12.32;;
37851;SDS011;23691;52.486;4.650;2023-04-06T10:15:29;22.98;;;12.48;;
37851;SDS011;23691;52.486;4.650;2023-04-06T10:17:59;20.25;;;12.10;;
37851;SDS011;23691;52.486;4.650;2023-04-06T10:23:13;20.30;;;11.02;;
37851;SDS011;23691;52.486;4.650;2023-04-06T10:25:58;23.17;;;11.60;;
37851;SDS011;23691;52.486;4.650;2023-04-06T10:28:25;19.08;;;10.00;;
37851;SDS011;23691;52.486;4.650;2023-04-06T10:30:58;19.10;;;9.75;;
37851;SDS011;23691;52.486;4.650;2023-04-06T10:33:25;17.92;;;8.75;;
37851;SDS011;23691;52.486;4.650;2023-04-06T10:35:50;16.80;;;7.90;;
37851;SDS011;23691;52.486;4.650;2023-04-06T10:38:16;15.88;;;8.20;;
37851;SDS011;23691;52.486;4.650;2023-04-06T10:40:46;18.85;;;8.68;;
37851;SDS011;23691;52.486;4.650;2023-04-06T10:43:19;18.38;;;8.18;;
37851;SDS011;23691;52.486;4.650;2023-04-06T10:45:53;18.25;;;8.73;;
37851;SDS011;23691;52.486;4.650;2023-04-06T10:48:20;15.35;;;7.82;;
37851;SDS011;23691;52.486;4.650;2023-04-06T10:50:52;16.63;;;7.95;;
37851;SDS011;23691;52.486;4.650;2023-04-06T10:53:22;17.55;;;8.40;;
37851;SDS011;23691;52.486;4.650;2023-04-06T10:55:50;16.55;;;8.13;;
37851;SDS011;23691;52.486;4.650;2023-04-06T10:58:16;17.55;;;8.73;;
37851;SDS011;23691;52.486;4.650;2023-04-06T11:00:45;20.98;;;9.88;;
37851;SDS011;23691;52.486;4.650;2023-04-06T11:03:11;14.20;;;7.20;;
37851;SDS011;23691;52.486;4.650;2023-04-06T11:05:36;13.85;;;6.93;;
37851;SDS011;23691;52.486;4.650;2023-04-06T11:08:02;14.15;;;7.10;;
37851;SDS011;23691;52.486;4.650;2023-04-06T11:10:27;14.60;;;7.40;;
37851;SDS011;23691;52.486;4.650;2023-04-06T11:12:55;15.00;;;6.73;;
37851;SDS011;23691;52.486;4.650;2023-04-06T11:15:21;13.70;;;7.45;;
37851;SDS011;23691;52.486;4.650;2023-04-06T11:17:46;14.90;;;7.35;;
37851;SDS011;23691;52.486;4.650;2023-04-06T11:20:11;13.70;;;7.00;;
37851;SDS011;23691;52.486;4.650;2023-04-06T11:22:47;14.88;;;7.60;;
37851;SDS011;23691;52.486;4.650;2023-04-06T11:25:16;15.07;;;7.15;;
37851;SDS011;23691;52.486;4.650;2023-04-06T11:27:42;13.00;;;6.95;;
37851;SDS011;23691;52.486;4.650;2023-04-06T11:30:14;14.60;;;7.25;;
37851;SDS011;23691;52.486;4.650;2023-04-06T11:32:43;12.43;;;7.07;;
37851;SDS011;23691;52.486;4.650;2023-04-06T11:35:28;16.52;;;7.07;;
37851;SDS011;23691;52.486;4.650;2023-04-06T11:37:56;12.27;;;6.40;;
37851;SDS011;23691;52.486;4.650;2023-04-06T11:40:22;13.18;;;6.93;;
37851;SDS011;23691;52.486;4.650;2023-04-06T11:42:54;12.57;;;6.88;;
37851;SDS011;23691;52.486;4.650;2023-04-06T11:45:23;12.82;;;6.90;;
37851;SDS011;23691;52.486;4.650;2023-04-06T11:47:58;13.77;;;6.65;;
37851;SDS011;23691;52.486;4.650;2023-04-06T11:50:25;12.27;;;6.57;;
37851;SDS011;23691;52.486;4.650;2023-04-06T11:52:58;12.45;;;7.10;;
37851;SDS011;23691;52.486;4.650;2023-04-06T11:55:25;12.43;;;6.90;;
37851;SDS011;23691;52.486;4.650;2023-04-06T11:57:51;12.38;;;6.75;;
37851;SDS011;23691;52.486;4.650;2023-04-06T12:00:16;13.25;;;6.38;;
37851;SDS011;23691;52.486;4.650;2023-04-06T12:02:45;11.73;;;6.32;;
37851;SDS011;23691;52.486;4.650;2023-04-06T12:05:11;12.27;;;6.22;;
37851;SDS011;23691;52.486;4.650;2023-04-06T12:07:37;11.80;;;6.53;;
37851;SDS011;23691;52.486;4.650;2023-04-06T12:10:02;11.70;;;6.50;;
37851;SDS011;23691;52.486;4.650;2023-04-06T12:12:29;14.20;;;6.97;;
37851;SDS011;23691;52.486;4.650;2023-04-06T12:14:55;12.65;;;7.00;;
37851;SDS011;23691;52.486;4.650;2023-04-06T12:17:21;13.85;;;6.88;;
37851;SDS011;23691;52.486;4.650;2023-04-06T12:19:49;13.13;;;6.88;;
37851;SDS011;23691;52.486;4.650;2023-04-06T12:22:15;11.93;;;6.85;;
37851;SDS011;23691;52.486;4.650;2023-04-06T12:24:41;13.82;;;6.80;;
37851;SDS011;23691;52.486;4.650;2023-04-06T12:27:06;13.38;;;7.50;;
37851;SDS011;23691;52.486;4.650;2023-04-06T12:29:32;13.65;;;7.28;;
37851;SDS011;23691;52.486;4.650;2023-04-06T12:31:57;16.20;;;7.30;;
37851;SDS011;23691;52.486;4.650;2023-04-06T12:34:22;15.98;;;7.88;;
37851;SDS011;23691;52.486;4.650;2023-04-06T12:36:48;13.90;;;7.60;;
37851;SDS011;23691;52.486;4.650;2023-04-06T12:39:13;13.55;;;7.78;;
37851;SDS011;23691;52.486;4.650;2023-04-06T12:41:38;14.18;;;8.07;;
37851;SDS011;23691;52.486;4.650;2023-04-06T12:44:07;15.93;;;8.23;;
37851;SDS011;23691;52.486;4.650;2023-04-06T12:46:32;14.10;;;8.05;;
37851;SDS011;23691;52.486;4.650;2023-04-06T12:48:58;15.88;;;8.10;;
37851;SDS011;23691;52.486;4.650;2023-04-06T12:51:24;16.08;;;8.60;;
37851;SDS011;23691;52.486;4.650;2023-04-06T12:53:56;15.95;;;8.60;;
37851;SDS011;23691;52.486;4.650;2023-04-06T12:56:21;14.48;;;8.10;;
37851;SDS011;23691;52.486;4.650;2023-04-06T12:58:47;14.10;;;7.70;;
37851;SDS011;23691;52.486;4.650;2023-04-06T13:01:12;13.77;;;7.85;;
37851;SDS011;23691;52.486;4.650;2023-04-06T13:03:38;14.50;;;8.10;;
37851;SDS011;23691;52.486;4.650;2023-04-06T13:06:04;13.65;;;7.80;;
37851;SDS011;23691;52.486;4.650;2023-04-06T13:08:30;16.08;;;7.43;;
37851;SDS011;23691;52.486;4.650;2023-04-06T13:10:55;15.52;;;8.35;;
37851;SDS011;23691;52.486;4.650;2023-04-06T13:13:25;12.10;;;7.18;;
37851;SDS011;23691;52.486;4.650;2023-04-06T13:15:54;13.93;;;7.97;;
37851;SDS011;23691;52.486;4.650;2023-04-06T13:18:24;14.82;;;7.88;;
37851;SDS011;23691;52.486;4.650;2023-04-06T13:20:49;14.65;;;7.90;;
37851;SDS011;23691;52.486;4.650;2023-04-06T13:23:15;14.13;;;7.40;;
37851;SDS011;23691;52.486;4.650;2023-04-06T13:25:41;13.52;;;7.18;;
37851;SDS011;23691;52.486;4.650;2023-04-06T13:28:07;13.55;;;7.22;;
37851;SDS011;23691;52.486;4.650;2023-04-06T13:30:32;12.68;;;7.00;;
37851;SDS011;23691;52.486;4.650;2023-04-06T13:32:58;11.70;;;6.85;;
37851;SDS011;23691;52.486;4.650;2023-04-06T13:35:23;12.85;;;7.05;;
37851;SDS011;23691;52.486;4.650;2023-04-06T13:37:48;14.60;;;7.75;;
37851;SDS011;23691;52.486;4.650;2023-04-06T13:40:14;14.38;;;7.65;;
37851;SDS011;23691;52.486;4.650;2023-04-06T13:42:39;12.82;;;7.55;;
37851;SDS011;23691;52.486;4.650;2023-04-06T13:45:06;14.38;;;7.90;;
37851;SDS011;23691;52.486;4.650;2023-04-06T13:47:31;13.00;;;7.80;;
37851;SDS011;23691;52.486;4.650;2023-04-06T13:50:00;16.33;;;8.40;;
37851;SDS011;23691;52.486;4.650;2023-04-06T13:52:25;13.13;;;7.60;;
37851;SDS011;23691;52.486;4.650;2023-04-06T13:54:50;13.73;;;8.13;;
37851;SDS011;23691;52.486;4.650;2023-04-06T13:57:16;13.70;;;8.13;;
37851;SDS011;23691;52.486;4.650;2023-04-06T13:59:41;14.65;;;8.02;;
37851;SDS011;23691;52.486;4.650;2023-04-06T14:02:08;13.40;;;8.15;;
37851;SDS011;23691;52.486;4.650;2023-04-06T14:04:34;13.57;;;8.17;;
37851;SDS011;23691;52.486;4.650;2023-04-06T14:07:01;14.68;;;7.53;;
37851;SDS011;23691;52.486;4.650;2023-04-06T14:09:27;14.65;;;8.48;;
37851;SDS011;23691;52.486;4.650;2023-04-06T14:11:56;13.80;;;7.80;;
37851;SDS011;23691;52.486;4.650;2023-04-06T14:16:47;33.75;;;20.13;;
37851;SDS011;23691;52.486;4.650;2023-04-06T14:19:14;50.85;;;24.00;;
37851;SDS011;23691;52.486;4.650;2023-04-06T14:21:44;28.90;;;16.75;;
37851;SDS011;23691;52.486;4.650;2023-04-06T14:24:10;19.80;;;12.27;;
37851;SDS011;23691;52.486;4.650;2023-04-06T14:26:36;21.70;;;12.90;;
37851;SDS011;23691;52.486;4.650;2023-04-06T14:29:02;17.05;;;10.30;;
37851;SDS011;23691;52.486;4.650;2023-04-06T14:31:31;17.27;;;10.30;;
37851;SDS011;23691;52.486;4.650;2023-04-06T14:33:57;18.25;;;11.25;;
37851;SDS011;23691;52.486;4.650;2023-04-06T14:36:23;17.13;;;11.10;;
37851;SDS011;23691;52.486;4.650;2023-04-06T14:38:51;17.85;;;11.45;;
37851;SDS011;23691;52.486;4.650;2023-04-06T14:41:19;15.73;;;9.93;;
37851;SDS011;23691;52.486;4.650;2023-04-06T14:43:47;16.98;;;10.27;;
37851;SDS011;23691;52.486;4.650;2023-04-06T14:46:13;14.55;;;9.02;;
37851;SDS011;23691;52.486;4.650;2023-04-06T14:48:38;14.15;;;8.52;;
37851;SDS011;23691;52.486;4.650;2023-04-06T14:51:04;13.43;;;8.57;;
37851;SDS011;23691;52.486;4.650;2023-04-06T14:53:29;14.30;;;8.95;;